Time;durP1;ratioP1;P1;durP2;ratioP2;P2;SDS_P1;SDS_P2;PMS_P1;PMS_P2;Temp;Humidity;BMP_temperature;BMP_pressure;BME280_temperature;BME280_humidity;BME280_pressure;Samples;Min_cycle;Max_cycle;Signal;HPM_P1;HPM_P2
2023/08/10 00:00:43;;;;;;;6.07;2.43;;;;;;;15.15;100.00;99012.13;4937422;28;20233;-60
2023/08/10 00:03:10;;;;;;;4.93;2.53;;;;;;;15.02;100.00;99004.75;4941570;28;20257;-60
2023/08/10 00:05:37;;;;;;;6.60;2.53;;;;;;;14.94;100.00;99015.28;4938811;28;20502;-59
2023/08/10 00:08:04;;;;;;;4.83;2.87;;;;;;;14.85;100.00;99010.06;4941543;28;20249;-59
2023/08/10 00:10:31;;;;;;;4.67;2.80;;;;;;;14.78;100.00;99014.38;4940544;28;20711;-59
2023/08/10 00:12:58;;;;;;;3.73;2.57;;;;;;;14.82;100.00;99007.78;4942274;28;20241;-60
2023/08/10 00:15:25;;;;;;;6.53;2.97;;;;;;;14.75;100.00;99012.91;4942613;28;20231;-59
2023/08/10 00:17:51;;;;;;;3.50;2.87;;;;;;;14.66;100.00;99013.06;4938818;28;20590;-60
2023/08/10 00:20:18;;;;;;;7.57;3.10;;;;;;;14.68;100.00;99014.53;4924328;28;20646;-60
2023/08/10 00:22:45;;;;;;;5.43;3.03;;;;;;;14.58;100.00;99016.50;4937729;28;20222;-60
2023/08/10 00:25:12;;;;;;;4.60;2.70;;;;;;;14.51;100.00;99019.00;4939872;28;20233;-60
2023/08/10 00:27:40;;;;;;;4.43;2.53;;;;;;;14.43;100.00;99026.88;4936776;28;20233;-60
2023/08/10 00:30:08;;;;;;;4.57;2.30;;;;;;;14.35;100.00;99021.63;4942587;28;20253;-59
2023/08/10 00:32:34;;;;;;;3.73;2.53;;;;;;;14.26;100.00;99024.25;4939151;28;20251;-60
2023/08/10 00:35:01;;;;;;;3.70;2.60;;;;;;;14.30;100.00;99017.69;4943002;28;20230;-60
2023/08/10 00:37:29;;;;;;;5.37;2.90;;;;;;;14.28;100.00;99021.50;4950332;28;20596;-60
2023/08/10 00:39:58;;;;;;;3.90;2.70;;;;;;;14.24;100.00;99020.19;4939506;28;20233;-59
2023/08/10 00:42:25;;;;;;;6.47;3.00;;;;;;;14.21;100.00;99028.38;4955971;28;20236;-59
2023/08/10 00:44:54;;;;;;;6.67;2.93;;;;;;;14.20;100.00;99027.56;4952477;28;20612;-59
2023/08/10 00:47:20;;;;;;;4.27;3.07;;;;;;;14.13;100.00;99027.41;4938609;28;20232;-59
2023/08/10 00:49:48;;;;;;;4.80;3.10;;;;;;;14.09;100.00;99033.97;4935467;28;22373;-60
2023/08/10 00:52:14;;;;;;;3.80;2.80;;;;;;;14.05;100.00;99032.63;4939803;28;20316;-59
2023/08/10 00:54:41;;;;;;;5.57;3.17;;;;;;;13.96;100.00;99028.38;4930149;28;20241;-60
2023/08/10 00:57:08;;;;;;;4.83;2.93;;;;;;;13.94;100.00;99035.59;4934165;29;20228;-60
2023/08/10 00:59:36;;;;;;;7.93;2.70;;;;;;;13.86;100.00;99042.47;4942454;28;20220;-59
2023/08/10 01:02:04;;;;;;;5.67;3.00;;;;;;;13.84;100.00;99040.97;4936724;28;20248;-59
2023/08/10 01:04:30;;;;;;;5.70;2.77;;;;;;;13.80;100.00;99045.72;4932328;28;20240;-59
2023/08/10 01:07:04;;;;;;;3.73;2.47;;;;;;;13.76;100.00;99048.84;4932370;29;20707;-59
2023/08/10 01:09:37;;;;;;;4.20;2.77;;;;;;;13.80;100.00;99050.97;4940988;28;20229;-59
2023/08/10 01:12:13;;;;;;;7.60;2.83;;;;;;;13.80;100.00;99050.13;4951001;28;20692;-59
2023/08/10 01:14:45;;;;;;;4.60;2.90;;;;;;;13.75;100.00;99050.63;4934939;28;20248;-59
2023/08/10 01:17:20;;;;;;;5.17;2.73;;;;;;;13.72;100.00;99053.59;4942273;28;21290;-59
2023/08/10 01:19:49;;;;;;;5.50;2.70;;;;;;;13.79;100.00;99056.38;4933317;28;20637;-60
2023/08/10 01:22:22;;;;;;;3.83;2.67;;;;;;;13.72;100.00;99061.44;4943930;28;20243;-59
2023/08/10 01:24:59;;;;;;;9.17;3.10;;;;;;;13.64;100.00;99054.41;4932872;28;20240;-59
2023/08/10 01:27:28;;;;;;;4.37;2.43;;;;;;;13.63;100.00;99054.53;4940271;28;20704;-60
2023/08/10 01:29:56;;;;;;;4.17;2.87;;;;;;;13.62;100.00;99052.91;4953182;28;20247;-59
2023/08/10 01:32:22;;;;;;;5.73;2.90;;;;;;;13.68;100.00;99053.09;4936950;28;20236;-59
2023/08/10 01:34:50;;;;;;;3.87;3.03;;;;;;;13.64;100.00;99049.16;4940161;28;20247;-59
2023/08/10 01:37:18;;;;;;;4.90;2.90;;;;;;;13.60;100.00;99050.44;4935338;28;20237;-60
2023/08/10 01:39:44;;;;;;;5.63;2.90;;;;;;;13.57;100.00;99048.94;4939571;28;20233;-59
2023/08/10 01:42:12;;;;;;;5.23;3.03;;;;;;;13.52;100.00;99042.56;4944064;28;20227;-59
2023/08/10 01:44:39;;;;;;;4.47;2.80;;;;;;;13.47;100.00;99036.97;4936425;28;20232;-59
2023/08/10 01:47:12;;;;;;;5.47;2.80;;;;;;;13.51;100.00;99051.41;4936279;28;20600;-59
2023/08/10 01:49:39;;;;;;;3.60;2.57;;;;;;;13.59;100.00;99059.28;4949414;28;20220;-59
2023/08/10 01:52:09;;;;;;;5.30;2.43;;;;;;;13.56;100.00;99049.94;4943017;28;20568;-59
2023/08/10 01:54:38;;;;;;;6.43;2.60;;;;;;;13.58;100.00;99053.22;4933412;28;20232;-60
2023/08/10 01:57:05;;;;;;;4.70;2.73;;;;;;;13.58;100.00;99053.22;4944201;28;20222;-59
2023/08/10 01:59:33;;;;;;;4.57;2.73;;;;;;;13.55;100.00;99057.97;4948325;28;20288;-59
2023/08/10 02:02:00;;;;;;;3.83;2.60;;;;;;;13.53;100.00;99062.56;4934794;28;20244;-59
2023/08/10 02:04:27;;;;;;;5.63;3.23;;;;;;;13.52;100.00;99060.91;4935630;28;20251;-59
2023/08/10 02:06:53;;;;;;;2.90;2.33;;;;;;;13.58;100.00;99061.09;4930761;29;20261;-59
2023/08/10 02:09:20;;;;;;;4.10;2.80;;;;;;;13.61;100.00;99056.50;4935699;29;20232;-59
2023/08/10 02:11:46;;;;;;;5.37;2.93;;;;;;;13.57;100.00;99056.81;4929849;28;20223;-59
2023/08/10 02:14:13;;;;;;;2.87;2.57;;;;;;;13.54;100.00;99059.75;4934094;28;20235;-59
2023/08/10 02:16:41;;;;;;;3.67;2.73;;;;;;;13.47;100.00;99060.56;4949336;28;20695;-59
2023/08/10 02:19:08;;;;;;;7.47;2.80;;;;;;;13.44;100.00;99053.81;4933463;28;20228;-59
2023/08/10 02:21:36;;;;;;;3.60;2.90;;;;;;;13.43;100.00;99053.00;4931309;28;20704;-59
2023/08/10 02:24:04;;;;;;;5.03;2.90;;;;;;;13.38;100.00;99051.81;4930516;29;20236;-59
2023/08/10 02:26:30;;;;;;;3.87;2.60;;;;;;;13.35;100.00;99054.75;4931622;28;20239;-59
2023/08/10 02:28:57;;;;;;;9.13;3.00;;;;;;;13.33;100.00;99048.84;4931028;29;20247;-59
2023/08/10 02:31:28;;;;;;;4.27;2.77;;;;;;;13.32;100.00;99047.19;4933335;29;20309;-59
2023/08/10 02:33:56;;;;;;;5.93;3.00;;;;;;;13.25;100.00;99041.78;4951175;28;20243;-59
2023/08/10 02:36:28;;;;;;;4.73;3.03;;;;;;;13.25;100.00;99041.78;4940791;28;20232;-59
2023/08/10 02:38:56;;;;;;;4.47;3.17;;;;;;;13.35;100.00;99033.75;4930661;28;20441;-59
2023/08/10 02:41:28;;;;;;;5.93;2.63;;;;;;;13.28;100.00;99036.22;4931775;28;20244;-59
2023/08/10 02:43:54;;;;;;;6.60;2.90;;;;;;;13.27;100.00;99034.56;4934603;28;20245;-59
2023/08/10 02:46:46;;;;;;;7.07;3.23;;;;;;;13.24;100.00;99035.72;4932400;29;20243;-58
2023/08/10 02:49:14;;;;;;;4.40;2.90;;;;;;;13.21;100.00;99036.03;4936216;28;20228;-59
2023/08/10 02:51:41;;;;;;;4.80;2.90;;;;;;;13.24;100.00;99032.25;4931812;28;20224;-59
2023/08/10 02:54:07;;;;;;;5.77;3.13;;;;;;;13.19;100.00;99031.91;4937833;29;20243;-60
2023/08/10 02:56:34;;;;;;;2.80;2.50;;;;;;;13.18;100.00;99033.72;4932165;28;20223;-59
2023/08/10 02:59:01;;;;;;;5.87;2.93;;;;;;;13.13;100.00;99036.00;4948878;28;20239;-59
2023/08/10 03:01:28;;;;;;;6.27;2.57;;;;;;;13.06;100.00;99034.97;4949291;28;20886;-59
2023/08/10 03:03:55;;;;;;;3.63;2.77;;;;;;;13.03;100.00;99035.28;4949957;28;20239;-59
2023/08/10 03:06:27;;;;;;;4.77;3.00;;;;;;;13.05;100.00;99031.53;4935486;29;20307;-59
2023/08/10 03:08:54;;;;;;;3.50;3.00;;;;;;;13.02;100.00;99023.97;4931220;28;20237;-59
2023/08/10 03:11:21;;;;;;;5.07;2.90;;;;;;;12.98;100.00;99025.25;4935027;29;20322;-59
2023/08/10 03:13:48;;;;;;;5.17;2.60;;;;;;;12.92;100.00;99033.75;4948394;28;20234;-59
2023/08/10 03:16:14;;;;;;;5.13;2.87;;;;;;;12.92;100.00;99029.34;4947533;28;20240;-58
2023/08/10 03:18:41;;;;;;;5.73;3.40;;;;;;;12.92;100.00;99020.66;4940084;28;20251;-59
2023/08/10 03:21:08;;;;;;;4.30;2.70;;;;;;;12.90;100.00;99030.47;4949067;28;20896;-58
2023/08/10 03:23:36;;;;;;;3.93;3.43;;;;;;;12.91;100.00;99038.19;4934857;28;20311;-59
2023/08/10 03:26:04;;;;;;;8.30;2.70;;;;;;;12.90;100.00;99043.56;4948943;28;20690;-59
2023/08/10 03:28:31;;;;;;;4.30;3.17;;;;;;;12.92;100.00;99036.38;4946840;28;20244;-58
2023/08/10 03:30:58;;;;;;;3.30;2.73;;;;;;;12.92;100.00;99031.97;5156465;23;20217;-58
2023/08/10 03:33:26;;;;;;;3.67;2.90;;;;;;;12.94;100.00;99034.41;4919920;29;20814;-59
2023/08/10 03:35:54;;;;;;;3.93;3.13;;;;;;;12.89;100.00;99034.91;4916800;29;20728;-58
2023/08/10 03:38:21;;;;;;;3.93;2.67;;;;;;;12.86;100.00;99032.59;4918555;29;20239;-59
2023/08/10 03:40:49;;;;;;;6.43;2.87;;;;;;;12.90;100.00;99030.47;4914681;29;23220;-59
2023/08/10 03:43:16;;;;;;;4.37;3.17;;;;;;;12.85;100.00;99039.63;4931700;28;20247;-59
2023/08/10 03:45:43;;;;;;;8.47;3.10;;;;;;;12.88;100.00;99043.72;4924723;29;20220;-59
2023/08/10 03:48:10;;;;;;;5.67;2.97;;;;;;;12.82;100.00;99042.53;4918206;29;20239;-59
2023/08/10 03:50:37;;;;;;;5.80;2.90;;;;;;;12.80;100.00;99052.34;4932762;28;20283;-59
2023/08/10 03:53:04;;;;;;;3.53;2.97;;;;;;;12.77;100.00;99055.28;4920318;29;20227;-59
2023/08/10 03:55:31;;;;;;;7.00;3.00;;;;;;;12.76;100.00;99052.81;4918881;29;20228;-58
2023/08/10 03:58:00;;;;;;;4.30;3.20;;;;;;;12.74;100.00;99066.06;4917158;29;20257;-58
2023/08/10 04:00:27;;;;;;;3.40;2.90;;;;;;;12.69;100.00;99068.34;4916882;29;20226;-58
2023/08/10 04:02:54;;;;;;;4.07;3.00;;;;;;;12.72;100.00;99065.41;4934254;28;20248;-58
2023/08/10 04:05:21;;;;;;;4.70;3.03;;;;;;;12.80;100.00;99064.66;4918654;29;20415;-59
2023/08/10 04:07:48;;;;;;;4.80;3.23;;;;;;;12.78;100.00;99063.97;4932237;28;20237;-58
2023/08/10 04:10:14;;;;;;;4.03;2.90;;;;;;;12.83;100.00;99067.75;4928873;29;20223;-58
2023/08/10 04:12:41;;;;;;;4.20;2.50;;;;;;;12.81;100.00;99072.34;4925089;29;20310;-58
2023/08/10 04:15:09;;;;;;;5.23;3.30;;;;;;;12.75;100.00;99074.75;4920173;29;20233;-58
2023/08/10 04:17:37;;;;;;;5.73;3.13;;;;;;;12.73;100.00;99081.94;4916159;29;20846;-58
2023/08/10 04:20:06;;;;;;;4.23;3.03;;;;;;;12.73;100.00;99080.13;4919215;29;20691;-59
2023/08/10 04:22:33;;;;;;;4.23;2.80;;;;;;;12.74;100.00;99081.78;4918607;29;20241;-60
2023/08/10 04:25:01;;;;;;;4.10;2.70;;;;;;;12.70;100.00;99081.28;4916496;29;20241;-59
2023/08/10 04:27:29;;;;;;;4.83;2.80;;;;;;;12.68;100.00;99078.00;4920141;29;20233;-59
2023/08/10 04:29:56;;;;;;;6.50;3.40;;;;;;;12.73;100.00;99080.13;4915901;29;20240;-59
2023/08/10 04:32:24;;;;;;;4.20;2.80;;;;;;;12.77;100.00;99086.72;4917262;29;20295;-60
2023/08/10 04:34:52;;;;;;;3.40;2.60;;;;;;;12.79;100.00;99083.94;4912886;29;20236;-59
2023/08/10 04:37:19;;;;;;;4.43;3.00;;;;;;;12.82;100.00;99087.06;4917244;29;20239;-59
2023/08/10 04:39:48;;;;;;;4.03;2.90;;;;;;;12.80;100.00;99096.06;4917822;29;20227;-59
2023/08/10 04:42:15;;;;;;;4.80;2.77;;;;;;;12.80;100.00;99093.47;4918631;29;20241;-59
2023/08/10 04:44:41;;;;;;;3.37;2.70;;;;;;;12.81;100.00;99090.66;4916392;29;20300;-59
2023/08/10 04:47:11;;;;;;;3.70;2.80;;;;;;;12.82;100.00;99092.31;4920098;29;20237;-59
2023/08/10 04:49:39;;;;;;;4.53;3.00;;;;;;;12.90;100.00;99086.31;4918962;28;20220;-59
2023/08/10 04:52:06;;;;;;;4.87;3.10;;;;;;;12.91;100.00;99090.59;4917892;29;20232;-60
2023/08/10 04:54:32;;;;;;;3.60;2.90;;;;;;;12.93;100.00;99090.41;4920251;29;20232;-59
2023/08/10 04:56:59;;;;;;;6.80;2.87;;;;;;;12.94;100.00;99086.81;4918692;29;20243;-59
2023/08/10 04:59:26;;;;;;;4.27;3.50;;;;;;;13.04;100.00;99087.53;4919673;29;20232;-59
2023/08/10 05:01:53;;;;;;;4.10;3.27;;;;;;;13.03;100.00;99085.09;4917062;29;20240;-59
2023/08/10 05:04:19;;;;;;;3.87;3.13;;;;;;;13.05;100.00;99094.41;4916368;29;20260;-59
2023/08/10 05:06:47;;;;;;;4.80;2.83;;;;;;;13.08;100.00;99086.25;4917635;29;20220;-59
2023/08/10 05:09:14;;;;;;;5.23;3.30;;;;;;;13.11;100.00;99093.00;4916745;29;20262;-60
2023/08/10 05:11:40;;;;;;;3.57;3.27;;;;;;;13.12;100.00;99087.59;4913808;29;20264;-60
2023/08/10 05:14:07;;;;;;;5.43;3.50;;;;;;;13.17;100.00;99084.50;4918327;29;20233;-60
2023/08/10 05:16:34;;;;;;;7.03;3.10;;;;;;;13.17;100.00;99083.66;4915341;29;20236;-59
2023/08/10 05:19:00;;;;;;;3.33;3.00;;;;;;;13.20;100.00;99092.06;4920163;29;20236;-59
2023/08/10 05:21:28;;;;;;;5.60;3.50;;;;;;;13.24;100.00;99093.41;4915993;29;20242;-59
2023/08/10 05:23:56;;;;;;;7.87;2.93;;;;;;;13.24;100.00;99088.16;4916040;29;20237;-59
2023/08/10 05:26:28;;;;;;;5.50;3.07;;;;;;;13.25;100.00;99092.38;4918465;29;20239;-59
2023/08/10 05:28:55;;;;;;;8.40;3.40;;;;;;;13.33;100.00;99091.63;4915647;29;20276;-60
2023/08/10 05:31:28;;;;;;;4.10;3.10;;;;;;;13.35;100.00;99099.31;4916064;29;20605;-60
2023/08/10 05:33:54;;;;;;;6.13;3.27;;;;;;;13.41;100.00;99111.78;4915335;29;20232;-60
2023/08/10 05:36:22;;;;;;;6.20;3.57;;;;;;;13.43;100.00;99107.25;4916515;29;20225;-60
2023/08/10 05:38:49;;;;;;;4.47;3.40;;;;;;;13.45;100.00;99112.34;4911984;28;20261;-60
2023/08/10 05:41:17;;;;;;;6.50;2.70;;;;;;;13.49;100.00;99126.78;4918630;29;20615;-62
2023/08/10 05:43:43;;;;;;;3.63;3.07;;;;;;;13.56;100.00;99130.44;4914630;29;20229;-59
2023/08/10 05:46:13;;;;;;;4.67;3.10;;;;;;;13.61;100.00;99132.56;4917402;29;20244;-59
2023/08/10 05:48:40;;;;;;;4.67;3.47;;;;;;;13.69;100.00;99137.84;4915418;29;20232;-60
2023/08/10 05:51:06;;;;;;;5.30;3.30;;;;;;;13.79;100.00;99142.94;4919053;29;20300;-59
2023/08/10 05:53:33;;;;;;;4.80;3.40;;;;;;;13.90;100.00;99142.66;4917245;29;20244;-59
2023/08/10 05:56:00;;;;;;;3.43;3.13;;;;;;;14.00;100.00;99153.84;4918690;29;20244;-59
2023/08/10 05:58:28;;;;;;;3.77;2.70;;;;;;;14.19;100.00;99151.13;4914892;29;20232;-59
2023/08/10 06:00:54;;;;;;;3.73;3.03;;;;;;;14.30;100.00;99153.44;4915706;29;20245;-59
2023/08/10 06:03:21;;;;;;;3.40;2.53;;;;;;;14.41;100.00;99157.53;4915617;29;20631;-59
2023/08/10 06:05:49;;;;;;;3.93;3.23;;;;;;;14.44;100.00;99158.03;4913966;29;20851;-59
2023/08/10 06:08:15;;;;;;;3.67;3.20;;;;;;;14.45;100.00;99170.19;4917807;29;20241;-58
2023/08/10 06:10:42;;;;;;;4.80;3.27;;;;;;;14.54;100.00;99164.94;4914780;29;20237;-58
2023/08/10 06:13:08;;;;;;;5.13;2.93;;;;;;;14.47;100.00;99170.84;4917313;29;20233;-59
2023/08/10 06:15:37;;;;;;;3.80;2.83;;;;;;;14.51;100.00;99171.34;4916389;29;20241;-57
2023/08/10 06:18:04;;;;;;;5.23;3.10;;;;;;;14.57;100.00;99175.94;4918100;29;20310;-59
2023/08/10 06:20:32;;;;;;;3.60;2.90;;;;;;;14.64;100.00;99162.97;4914583;29;20235;-60
2023/08/10 06:22:59;;;;;;;3.67;2.90;;;;;;;14.73;100.00;99174.34;4918423;29;20731;-59
2023/08/10 06:25:26;;;;;;;5.13;3.10;;;;;;;14.83;100.00;99167.13;4914294;29;20238;-59
2023/08/10 06:27:52;;;;;;;3.20;2.90;;;;;;;14.90;100.00;99170.72;4914354;29;20691;-59
2023/08/10 06:30:19;;;;;;;4.27;2.80;;;;;;;14.98;100.00;99171.69;4919533;29;20679;-60
2023/08/10 06:32:47;;;;;;;3.20;2.90;;;;;;;15.05;100.00;99170.88;4913733;29;20231;-58
2023/08/10 06:35:14;;;;;;;7.07;3.60;;;;;;;15.01;100.00;99173.97;4915876;29;20715;-59
2023/08/10 06:37:42;;;;;;;4.80;3.27;;;;;;;15.17;100.00;99178.41;4913898;29;20206;-59
2023/08/10 06:40:09;;;;;;;4.87;3.73;;;;;;;15.18;100.00;99175.59;4917217;29;20725;-59
2023/08/10 06:42:36;;;;;;;4.23;3.20;;;;;;;15.34;100.00;99184.47;4911315;29;20289;-60
2023/08/10 06:45:10;;;;;;;4.20;3.07;;;;;;;15.44;100.00;99179.00;4914913;29;20238;-60
2023/08/10 06:47:37;;;;;;;7.97;3.43;;;;;;;15.50;100.00;99181.78;4913368;28;20246;-59
2023/08/10 06:50:08;;;;;;;3.63;3.23;;;;;;;15.61;100.00;99187.69;4915660;29;20324;-60
2023/08/10 06:52:34;;;;;;;4.00;2.80;;;;;;;15.76;100.00;99188.63;4915036;28;20249;-62
2023/08/10 06:55:01;;;;;;;3.90;3.13;;;;;;;15.93;100.00;99191.19;4917629;29;20257;-60
2023/08/10 06:57:27;;;;;;;5.50;2.80;;;;;;;16.01;100.00;99183.25;4913861;29;20235;-61
2023/08/10 06:59:54;;;;;;;5.10;3.03;;;;;;;16.16;100.00;99187.78;4911323;29;20235;-60
2023/08/10 07:02:21;;;;;;;3.77;3.10;;;;;;;16.25;100.00;99188.56;4917118;29;20253;-60
2023/08/10 07:04:50;;;;;;;6.40;2.83;;;;;;;16.43;100.00;99186.44;4913366;29;20312;-59
2023/08/10 07:07:18;;;;;;;7.23;2.73;;;;;;;16.52;100.00;99181.97;4922246;29;20230;-58
2023/08/10 07:09:45;;;;;;;4.47;3.20;;;;;;;16.55;100.00;99184.25;4917148;29;20249;-60
2023/08/10 07:12:11;;;;;;;3.27;2.93;;;;;;;16.70;100.00;99194.84;4920747;29;20245;-60
2023/08/10 07:14:38;;;;;;;4.07;2.97;;;;;;;16.79;100.00;99175.31;4915817;29;20230;-59
2023/08/10 07:17:05;;;;;;;4.43;2.57;;;;;;;16.87;100.00;99179.72;4926409;29;20706;-60
2023/08/10 07:19:31;;;;;;;4.90;2.57;;;;;;;17.01;100.00;99185.22;4917239;29;20227;-60
2023/08/10 07:21:58;;;;;;;3.80;3.00;;;;;;;17.20;100.00;99187.34;4919645;29;20602;-60
2023/08/10 07:24:26;;;;;;;6.67;3.00;;;;;;;17.41;100.00;99191.94;4919203;29;20214;-62
2023/08/10 07:26:53;;;;;;;3.10;2.47;;;;;;;17.54;100.00;99190.44;4915107;29;20227;-60
2023/08/10 07:29:19;;;;;;;6.83;2.60;;;;;;;17.64;100.00;99183.06;4920466;29;20227;-60
2023/08/10 07:31:46;;;;;;;4.87;2.50;;;;;;;17.79;100.00;99177.78;4915356;29;20234;-60
2023/08/10 07:34:13;;;;;;;3.83;2.57;;;;;;;17.93;100.00;99186.69;4919135;29;20253;-59
2023/08/10 07:36:39;;;;;;;6.37;2.80;;;;;;;18.06;100.00;99185.25;4915927;28;20589;-60
2023/08/10 07:39:06;;;;;;;3.80;2.57;;;;;;;18.01;100.00;99188.44;4919051;29;20227;-60
2023/08/10 07:41:34;;;;;;;3.60;2.73;;;;;;;18.09;100.00;99184.88;4916673;28;20309;-60
2023/08/10 07:44:03;;;;;;;3.80;2.70;;;;;;;18.17;100.00;99178.63;4921885;29;20600;-60
2023/08/10 07:46:30;;;;;;;3.50;2.27;;;;;;;18.30;100.00;99184.06;4918326;28;20231;-60
2023/08/10 07:48:57;;;;;;;4.37;2.63;;;;;;;18.38;100.00;99188.44;4917744;29;20232;-59
2023/08/10 07:51:28;;;;;;;5.03;2.83;;;;;;;18.52;98.78;99189.38;4919896;29;20237;-61
2023/08/10 07:53:55;;;;;;;4.93;2.77;;;;;;;18.59;95.22;99190.25;4917393;29;20230;-60
2023/08/10 07:56:47;;;;;;;3.90;2.70;;;;;;;18.73;95.60;99191.19;4915775;29;20259;-60
2023/08/10 07:59:14;;;;;;;4.47;2.63;;;;;;;18.71;94.27;99185.25;4918514;29;20231;-60
2023/08/10 08:01:40;;;;;;;6.93;2.63;;;;;;;18.85;98.63;99183.56;4914803;29;20232;-60
2023/08/10 08:04:07;;;;;;;3.97;2.80;;;;;;;18.94;94.81;99187.72;4918060;29;20261;-60
2023/08/10 08:06:35;;;;;;;3.40;2.53;;;;;;;19.03;95.54;99183.13;4917064;29;20232;-59
2023/08/10 08:09:03;;;;;;;4.47;2.60;;;;;;;19.08;96.49;99193.13;4918094;29;20238;-60
2023/08/10 08:11:29;;;;;;;3.70;2.60;;;;;;;19.20;94.18;99177.53;4914084;29;20229;-60
2023/08/10 08:13:57;;;;;;;2.80;2.40;;;;;;;19.21;87.80;99182.63;4920734;29;20254;-60
2023/08/10 08:16:28;;;;;;;4.00;2.40;;;;;;;19.23;88.96;99182.44;4919848;28;20588;-60
2023/08/10 08:18:55;;;;;;;5.57;2.43;;;;;;;19.32;88.02;99181.28;4915901;29;20233;-60
2023/08/10 08:21:27;;;;;;;3.80;2.40;;;;;;;19.41;90.96;99181.94;4916980;29;20740;-59
2023/08/10 08:23:55;;;;;;;4.03;2.33;;;;;;;19.49;88.41;99178.31;4916316;29;20232;-60
2023/08/10 08:26:26;;;;;;;3.63;2.53;;;;;;;19.56;89.82;99179.97;4920011;29;20300;-60
2023/08/10 08:28:53;;;;;;;4.30;2.70;;;;;;;19.57;86.58;99176.31;4915081;29;20241;-60
2023/08/10 08:31:21;;;;;;;3.17;2.73;;;;;;;19.52;87.32;99176.09;4917636;29;20255;-59
2023/08/10 08:33:48;;;;;;;3.60;2.57;;;;;;;19.58;88.39;99174.50;4915759;29;20323;-60
2023/08/10 08:36:15;;;;;;;4.57;2.93;;;;;;;19.64;89.35;99171.03;4918460;29;20221;-60
2023/08/10 08:38:42;;;;;;;6.70;2.60;;;;;;;19.73;89.34;99177.00;4915962;29;20225;-60
2023/08/10 08:41:10;;;;;;;3.57;2.87;;;;;;;19.74;88.39;99178.66;4917686;29;20237;-60
2023/08/10 08:43:39;;;;;;;2.83;2.30;;;;;;;19.87;87.53;99173.41;4917949;29;20716;-60
2023/08/10 08:46:07;;;;;;;6.53;3.07;;;;;;;19.91;87.53;99179.97;4917174;29;20661;-60
2023/08/10 08:48:35;;;;;;;5.70;2.67;;;;;;;20.08;86.10;99184.94;4914728;29;20234;-60
2023/08/10 08:51:02;;;;;;;5.07;2.60;;;;;;;19.94;84.48;99181.41;4919311;29;20364;-60
2023/08/10 08:53:29;;;;;;;6.37;2.47;;;;;;;20.05;87.43;99180.03;4915295;29;20227;-60
2023/08/10 08:55:56;;;;;;;3.00;2.60;;;;;;;20.05;84.57;99172.88;4918040;29;20245;-60
2023/08/10 08:58:23;;;;;;;3.77;2.63;;;;;;;20.11;84.67;99171.28;4917558;29;20233;-60
2023/08/10 09:00:52;;;;;;;3.30;2.73;;;;;;;20.05;83.36;99169.41;4914429;29;20238;-61
2023/08/10 09:03:19;;;;;;;4.37;2.93;;;;;;;20.16;84.75;99170.66;4920734;29;20333;-60
2023/08/10 09:05:48;;;;;;;5.30;2.93;;;;;;;20.12;83.32;99167.59;4914702;29;20233;-61
2023/08/10 09:08:16;;;;;;;3.70;2.67;;;;;;;20.25;84.05;99164.16;4917558;29;20242;-60
2023/08/10 09:10:45;;;;;;;3.77;2.50;;;;;;;20.32;81.52;99169.47;4913334;29;20342;-60
2023/08/10 09:13:13;;;;;;;4.47;2.50;;;;;;;20.25;81.49;99158.03;4917650;29;20242;-60
2023/08/10 09:15:39;;;;;;;5.00;2.70;;;;;;;20.39;81.77;99158.88;4913252;29;20249;-60
2023/08/10 09:18:06;;;;;;;3.73;2.90;;;;;;;20.34;80.62;99148.88;4916517;29;20241;-60
2023/08/10 09:20:33;;;;;;;5.57;3.00;;;;;;;20.42;81.77;99145.22;4915528;29;20247;-60
2023/08/10 09:23:02;;;;;;;4.77;3.20;;;;;;;20.60;80.76;99132.19;4910341;29;20241;-60
2023/08/10 09:25:36;;;;;;;4.00;3.13;;;;;;;20.57;81.71;99131.75;4928206;29;20227;-61
2023/08/10 09:28:08;;;;;;;4.67;3.27;;;;;;;20.63;78.80;99138.91;4916965;29;20290;-61
2023/08/10 09:30:35;;;;;;;5.33;2.70;;;;;;;20.63;77.98;99131.78;4916200;29;20794;-60
2023/08/10 09:33:01;;;;;;;2.67;2.47;;;;;;;20.80;77.10;99128.72;4916177;29;20273;-61
2023/08/10 09:35:30;;;;;;;4.23;2.60;;;;;;;20.83;77.98;99132.81;4930123;29;20578;-61
2023/08/10 09:38:02;;;;;;;6.80;2.47;;;;;;;20.88;77.26;99133.00;4914226;29;20257;-61
2023/08/10 09:40:29;;;;;;;4.67;2.83;;;;;;;20.97;77.65;99136.25;4914640;29;20667;-61
2023/08/10 09:42:56;;;;;;;4.43;2.63;;;;;;;21.11;73.58;99127.25;4916853;29;20661;-61
2023/08/10 09:45:22;;;;;;;2.63;2.40;;;;;;;21.04;70.87;99124.63;4917703;29;20335;-60
2023/08/10 09:47:49;;;;;;;4.63;2.50;;;;;;;21.15;69.39;99130.31;4913270;29;20242;-61
2023/08/10 09:50:17;;;;;;;4.50;2.17;;;;;;;21.10;64.96;99128.28;4915682;29;20737;-60
2023/08/10 09:52:44;;;;;;;2.57;2.20;;;;;;;21.24;68.98;99121.09;4916643;29;20716;-61
2023/08/10 09:55:13;;;;;;;5.07;2.53;;;;;;;21.39;67.78;99118.19;4918258;29;20238;-60
2023/08/10 09:57:40;;;;;;;3.23;2.30;;;;;;;21.44;69.60;99122.88;4922892;29;20227;-61
2023/08/10 10:00:14;;;;;;;4.43;2.20;;;;;;;21.45;69.11;99125.31;4919231;29;20286;-61
2023/08/10 10:02:41;;;;;;;3.73;2.23;;;;;;;21.53;69.21;99122.44;4914385;29;20214;-60
2023/08/10 10:05:08;;;;;;;6.10;2.50;;;;;;;21.60;68.58;99122.41;4915672;29;20244;-60
2023/08/10 10:07:35;;;;;;;3.03;2.43;;;;;;;21.66;68.08;99118.94;4914298;29;20225;-61
2023/08/10 10:10:02;;;;;;;4.63;2.33;;;;;;;21.79;70.40;99130.53;4918081;29;20233;-60
2023/08/10 10:12:36;;;;;;;4.30;2.30;;;;;;;21.81;68.91;99129.28;4915962;29;20246;-60
2023/08/10 10:15:03;;;;;;;2.97;2.40;;;;;;;21.93;66.22;99128.59;4931489;29;20752;-61
2023/08/10 10:17:29;;;;;;;2.87;2.10;;;;;;;21.86;68.39;99123.34;4914029;29;20241;-61
2023/08/10 10:19:56;;;;;;;5.23;2.20;;;;;;;21.92;64.97;99113.69;4913518;29;20250;-59
2023/08/10 10:22:23;;;;;;;3.33;1.50;;;;;;;21.92;65.92;99111.84;4914322;29;20254;-59
2023/08/10 10:24:52;;;;;;;2.10;1.73;;;;;;;21.97;62.70;99112.03;4911529;29;20325;-59
2023/08/10 10:27:19;;;;;;;2.30;1.77;;;;;;;21.95;62.10;99092.81;4916454;29;20235;-59
2023/08/10 10:29:53;;;;;;;4.90;2.10;;;;;;;21.81;63.13;99093.94;4913575;29;20901;-60
2023/08/10 10:32:21;;;;;;;3.27;2.17;;;;;;;21.94;63.63;99085.88;4916996;29;20242;-60
2023/08/10 10:34:51;;;;;;;5.33;2.93;;;;;;;21.89;67.03;99090.19;4914298;28;20214;-59
2023/08/10 10:37:19;;;;;;;3.63;2.40;;;;;;;21.99;66.44;99089.75;4917190;29;20914;-59
2023/08/10 10:39:48;;;;;;;2.73;2.30;;;;;;;21.94;66.71;99085.88;4914658;29;20237;-59
2023/08/10 10:42:17;;;;;;;4.53;2.20;;;;;;;21.94;68.31;99075.25;4917491;29;20587;-59
2023/08/10 10:45:03;;;;;;;2.33;2.03;;;;;;;22.15;68.36;99069.78;4913120;29;20215;-59
2023/08/10 10:47:38;;;;;;;3.63;2.17;;;;;;;22.23;65.61;99066.88;4913451;29;20318;-59
2023/08/10 10:50:15;;;;;;;3.23;2.07;;;;;;;22.34;67.64;99068.00;4918562;28;20275;-60
2023/08/10 10:52:52;;;;;;;4.03;2.30;;;;;;;22.41;65.64;99066.09;4913775;29;20234;-60
2023/08/10 10:55:19;;;;;;;2.93;2.17;;;;;;;22.50;64.99;99061.38;4916378;28;20242;-62
2023/08/10 10:57:48;;;;;;;5.77;2.47;;;;;;;22.44;65.88;99063.03;4915474;29;20223;-60
2023/08/10 11:00:17;;;;;;;4.30;2.10;;;;;;;22.50;65.08;99059.50;4914079;29;20261;-59
2023/08/10 11:02:44;;;;;;;6.20;2.10;;;;;;;22.53;64.32;99055.59;4911745;29;20223;-60
2023/08/10 11:05:12;;;;;;;2.47;2.27;;;;;;;22.59;65.49;99045.94;4916258;29;20232;-59
2023/08/10 11:07:42;;;;;;;3.57;2.40;;;;;;;22.64;65.29;99052.22;4916772;29;20295;-60
2023/08/10 11:10:10;;;;;;;3.00;2.27;;;;;;;22.79;65.47;99054.53;4916044;29;20247;-61
2023/08/10 11:12:39;;;;;;;4.70;2.00;;;;;;;22.82;63.03;99050.59;4911163;29;20323;-61
2023/08/10 11:15:07;;;;;;;2.80;2.10;;;;;;;22.89;64.25;99050.56;4914753;29;20701;-60
2023/08/10 11:17:35;;;;;;;3.97;2.00;;;;;;;23.02;63.89;99049.56;4911644;29;20267;-61
2023/08/10 11:20:07;;;;;;;3.20;2.30;;;;;;;23.13;63.91;99051.50;4917045;28;20226;-61
2023/08/10 11:22:37;;;;;;;3.33;2.30;;;;;;;23.15;61.82;99052.09;4914213;29;20346;-60
2023/08/10 11:25:08;;;;;;;2.23;2.03;;;;;;;23.13;61.78;99064.81;4915245;28;20226;-60
2023/08/10 11:27:35;;;;;;;2.60;2.30;;;;;;;23.25;60.99;99055.06;4911524;29;20235;-60
2023/08/10 11:30:03;;;;;;;4.10;2.00;;;;;;;23.32;62.00;99060.31;4913494;28;20243;-60